createdAt,value
2022-10-19T00:00:39.750Z,8.40
2022-10-19T00:03:31.031Z,8.20
2022-10-19T00:06:11.902Z,8.60
2022-10-19T00:08:43.679Z,8.00
2022-10-19T00:11:15.286Z,8.30
2022-10-19T00:13:46.640Z,7.60
2022-10-19T00:16:20.335Z,7.50
2022-10-19T00:21:22.091Z,6.90
2022-10-19T00:23:53.685Z,8.80
2022-10-19T00:26:25.343Z,8.70
2022-10-19T00:28:57.712Z,9.80
2022-10-19T00:31:29.555Z,10.40
2022-10-19T00:34:01.532Z,13.10
2022-10-19T00:36:35.751Z,10.40
2022-10-19T00:39:09.672Z,9.30
2022-10-19T00:41:42.152Z,9.70
2022-10-19T00:44:44.050Z,9.40
2022-10-19T00:47:15.881Z,10.00
2022-10-19T00:49:47.880Z,10.70
2022-10-19T00:52:24.622Z,10.40
2022-10-19T00:54:57.791Z,10.20
2022-10-19T00:57:32.658Z,11.70
2022-10-19T01:00:07.017Z,11.30
2022-10-19T01:02:38.820Z,9.80
2022-10-19T01:05:12.398Z,8.50
2022-10-19T01:07:43.981Z,7.60
2022-10-19T01:10:15.730Z,6.90
2022-10-19T01:12:59.367Z,7.70
2022-10-19T01:15:42.171Z,7.90
2022-10-19T01:18:20.906Z,7.90
2022-10-19T01:21:15.499Z,8.00
2022-10-19T01:24:07.752Z,7.60
2022-10-19T01:27:12.578Z,9.00
2022-10-19T01:30:01.225Z,9.20
2022-10-19T01:32:41.979Z,9.50
2022-10-19T01:35:19.890Z,10.80
2022-10-19T01:37:57.098Z,9.90
2022-10-19T01:40:32.620Z,9.80
2022-10-19T01:43:09.224Z,11.20
2022-10-19T01:45:47.214Z,10.70
2022-10-19T01:48:23.079Z,11.90
2022-10-19T01:50:58.929Z,11.70
2022-10-19T01:53:35.698Z,10.60
2022-10-19T01:56:09.796Z,10.50
2022-10-19T01:58:44.951Z,13.00
2022-10-19T02:01:20.924Z,12.10
2022-10-19T02:03:54.115Z,13.50
2022-10-19T02:06:26.054Z,12.70
2022-10-19T02:08:57.515Z,11.90
2022-10-19T02:11:29.783Z,13.00
2022-10-19T02:14:06.009Z,11.50
2022-10-19T02:16:41.910Z,12.30
2022-10-19T02:19:16.624Z,12.30
2022-10-19T02:21:48.166Z,14.70
2022-10-19T02:24:19.666Z,13.10
2022-10-19T02:26:51.644Z,10.50
2022-10-19T02:29:23.321Z,12.40
2022-10-19T02:31:54.652Z,14.60
2022-10-19T02:34:26.514Z,11.80
2022-10-19T02:36:58.458Z,11.10
2022-10-19T02:39:30.371Z,11.10
2022-10-19T02:42:07.509Z,9.60
2022-10-19T02:44:43.499Z,12.30
2022-10-19T02:47:19.950Z,13.40
2022-10-19T02:49:52.954Z,16.40
2022-10-19T02:52:24.215Z,13.30
2022-10-19T02:54:55.536Z,16.80
2022-10-19T02:57:27.562Z,18.30
2022-10-19T02:59:59.249Z,17.50
2022-10-19T03:02:30.588Z,20.40
2022-10-19T03:05:02.002Z,17.40
2022-10-19T03:07:33.538Z,17.30
2022-10-19T03:10:05.367Z,16.60
2022-10-19T03:12:36.794Z,14.20
2022-10-19T03:15:11.764Z,14.70
2022-10-19T03:17:43.169Z,12.60
2022-10-19T03:20:14.487Z,15.80
2022-10-19T03:22:45.876Z,15.80
2022-10-19T03:25:17.686Z,16.80
2022-10-19T03:27:49.111Z,15.00
2022-10-19T03:30:20.460Z,15.70
2022-10-19T03:32:51.836Z,13.80
2022-10-19T03:35:23.182Z,13.80
2022-10-19T03:37:54.539Z,11.50
2022-10-19T03:40:25.964Z,11.40
2022-10-19T03:42:57.278Z,9.60
2022-10-19T03:45:28.632Z,9.80
2022-10-19T03:48:00.125Z,8.80
2022-10-19T03:50:31.447Z,10.00
2022-10-19T03:55:39.077Z,9.70
2022-10-19T03:58:10.399Z,12.50
2022-10-19T04:00:42.113Z,10.50
2022-10-19T04:03:13.504Z,11.70
2022-10-19T04:05:44.823Z,13.10
2022-10-19T04:08:16.304Z,17.90
2022-10-19T04:10:47.848Z,20.70
2022-10-19T04:13:19.300Z,20.50
2022-10-19T04:15:50.644Z,20.60
2022-10-19T04:18:22.073Z,18.50
2022-10-19T04:20:58.593Z,17.90
2022-10-19T04:23:31.765Z,15.70
2022-10-19T04:26:04.933Z,17.40
2022-10-19T04:28:37.006Z,14.50
2022-10-19T04:31:09.401Z,16.00
2022-10-19T04:33:41.355Z,19.10
2022-10-19T04:36:13.649Z,19.90
2022-10-19T04:38:45.061Z,19.70
2022-10-19T04:41:19.713Z,19.00
2022-10-19T04:43:55.968Z,19.60
2022-10-19T04:46:29.007Z,17.10
2022-10-19T04:49:01.216Z,18.20
2022-10-19T04:51:32.984Z,21.30
2022-10-19T04:54:04.861Z,21.40
2022-10-19T04:56:36.225Z,25.20
2022-10-19T04:59:07.610Z,26.90
2022-10-19T05:01:44.758Z,25.10
2022-10-19T05:04:18.714Z,22.70
2022-10-19T05:06:50.048Z,23.50
2022-10-19T05:09:22.441Z,20.20
2022-10-19T05:11:53.742Z,21.50
2022-10-19T05:14:25.424Z,18.70
2022-10-19T05:16:56.875Z,17.60
2022-10-19T05:19:28.305Z,16.50
2022-10-19T05:21:59.753Z,19.40
2022-10-19T05:24:32.655Z,16.50
2022-10-19T05:27:03.956Z,17.70
2022-10-19T05:29:35.324Z,17.70
2022-10-19T05:32:07.109Z,15.40
2022-10-19T05:34:38.426Z,16.10
2022-10-19T05:37:09.854Z,21.50
2022-10-19T05:39:41.522Z,18.60
2022-10-19T05:42:13.255Z,17.60
2022-10-19T05:44:46.676Z,27.50
2022-10-19T05:47:18.157Z,21.50
2022-10-19T05:49:50.103Z,16.10
2022-10-19T05:52:21.378Z,17.80
2022-10-19T05:54:54.070Z,17.00
2022-10-19T05:57:25.705Z,16.90
2022-10-19T05:59:58.418Z,11.70
2022-10-19T06:02:29.695Z,13.90
2022-10-19T06:05:01.012Z,14.20
2022-10-19T06:07:33.863Z,15.80
2022-10-19T06:10:10.054Z,16.10
2022-10-19T06:12:41.588Z,15.90
2022-10-19T06:15:13.465Z,15.10
2022-10-19T06:17:44.842Z,13.70
2022-10-19T06:20:17.485Z,16.60
2022-10-19T06:22:48.867Z,16.10
2022-10-19T06:25:21.241Z,15.20
2022-10-19T06:27:53.164Z,15.10
2022-10-19T06:30:26.175Z,13.90
2022-10-19T06:32:57.609Z,15.00
2022-10-19T06:35:29.071Z,17.00
2022-10-19T06:38:01.144Z,16.40
2022-10-19T06:40:32.895Z,18.20
2022-10-19T06:43:04.834Z,19.80
2022-10-19T06:45:38.189Z,20.20
2022-10-19T06:48:09.759Z,21.20
2022-10-19T06:50:42.107Z,20.00
2022-10-19T06:53:13.591Z,17.60
2022-10-19T06:55:45.029Z,24.70
2022-10-19T06:58:16.463Z,16.90
2022-10-19T07:00:54.871Z,16.10
2022-10-19T07:03:26.900Z,17.20
2022-10-19T07:06:00.035Z,16.90
2022-10-19T07:08:32.961Z,15.80
2022-10-19T07:11:07.488Z,16.30
2022-10-19T07:13:39.335Z,18.50
2022-10-19T07:16:17.609Z,19.60
2022-10-19T07:18:53.809Z,16.40
2022-10-19T07:21:25.542Z,15.30
2022-10-19T07:23:56.917Z,20.40
2022-10-19T07:26:30.637Z,15.20
2022-10-19T07:29:02.944Z,14.30
2022-10-19T07:31:35.058Z,14.60
2022-10-19T07:34:07.603Z,16.50
2022-10-19T07:36:39.851Z,17.10
2022-10-19T07:39:12.611Z,18.20
2022-10-19T07:41:44.525Z,15.20
2022-10-19T07:44:16.696Z,16.30
2022-10-19T07:46:47.996Z,14.70
2022-10-19T07:49:20.759Z,11.70
2022-10-19T07:51:55.058Z,11.90
2022-10-19T07:54:27.477Z,14.90
2022-10-19T07:56:58.859Z,14.20
2022-10-19T07:59:30.665Z,11.80
2022-10-19T08:02:04.713Z,11.40
2022-10-19T08:07:30.037Z,9.30
2022-10-19T08:10:01.478Z,12.80
2022-10-19T08:12:36.235Z,8.60
2022-10-19T08:15:09.540Z,12.30
2022-10-19T08:17:40.868Z,10.40
2022-10-19T08:20:13.200Z,11.80
2022-10-19T08:22:45.379Z,13.10
2022-10-19T08:25:17.028Z,9.00
2022-10-19T08:27:48.656Z,9.60
2022-10-19T08:30:20.328Z,9.80
2022-10-19T08:32:51.758Z,9.50
2022-10-19T08:35:23.071Z,10.30
2022-10-19T08:37:57.266Z,10.40
2022-10-19T08:40:32.105Z,8.80
2022-10-19T08:43:13.487Z,8.30
2022-10-19T08:45:50.874Z,7.30
2022-10-19T08:48:28.354Z,8.90
2022-10-19T08:51:01.833Z,9.60
2022-10-19T08:53:44.795Z,7.10
2022-10-19T08:56:51.110Z,6.20
2022-10-19T08:59:34.908Z,7.70
2022-10-19T09:02:14.847Z,4.90
2022-10-19T09:04:51.447Z,7.30
2022-10-19T09:07:27.836Z,9.10
2022-10-19T09:10:03.889Z,6.70
2022-10-19T09:12:43.432Z,7.10
2022-10-19T09:15:19.467Z,7.40
2022-10-19T09:17:51.087Z,6.80
2022-10-19T09:20:26.228Z,9.40
2022-10-19T09:23:13.495Z,6.40
2022-10-19T09:25:45.075Z,6.00
2022-10-19T09:28:33.913Z,7.90
2022-10-19T09:31:15.945Z,4.80
2022-10-19T09:33:53.819Z,5.60
2022-10-19T09:36:49.475Z,7.00
2022-10-19T09:39:23.515Z,7.50
2022-10-19T09:42:00.242Z,5.40
2022-10-19T09:44:33.348Z,7.70
2022-10-19T09:47:20.546Z,10.20
2022-10-19T09:49:51.872Z,7.10
2022-10-19T09:52:35.940Z,12.30
2022-10-19T09:55:18.761Z,8.20
2022-10-19T09:57:52.020Z,6.10
2022-10-19T10:00:26.068Z,9.00
2022-10-19T10:02:58.378Z,8.40
2022-10-19T10:05:35.229Z,6.00
2022-10-19T10:08:13.815Z,6.70
2022-10-19T10:10:49.735Z,6.90
2022-10-19T10:13:22.799Z,4.80
2022-10-19T10:16:01.666Z,3.50
2022-10-19T10:18:37.325Z,4.60
2022-10-19T10:21:25.397Z,4.10
2022-10-19T10:24:06.878Z,6.00
2022-10-19T10:26:43.685Z,2.80
2022-10-19T10:29:27.169Z,2.10
2022-10-19T10:32:02.940Z,5.20
2022-10-19T10:34:58.414Z,3.90
2022-10-19T10:37:37.245Z,4.80
2022-10-19T10:40:23.671Z,5.80
2022-10-19T10:42:57.663Z,6.00
2022-10-19T10:45:33.781Z,4.40
2022-10-19T10:48:21.498Z,4.50
2022-10-19T10:50:53.049Z,4.20
2022-10-19T10:53:37.420Z,4.60
2022-10-19T10:56:24.238Z,5.50
2022-10-19T10:59:02.964Z,4.90
2022-10-19T11:01:41.402Z,4.70
2022-10-19T11:04:19.187Z,3.80
2022-10-19T11:07:03.092Z,3.40
2022-10-19T11:12:12.755Z,3.90
2022-10-19T11:14:50.969Z,3.60
2022-10-19T11:17:26.454Z,3.30
2022-10-19T11:19:58.049Z,4.20
2022-10-19T11:22:34.553Z,5.00
2022-10-19T11:25:24.876Z,6.30
2022-10-19T11:28:11.048Z,5.20
2022-10-19T11:30:56.583Z,3.40
2022-10-19T11:33:44.595Z,3.30
2022-10-19T11:36:29.766Z,3.40
2022-10-19T11:39:13.308Z,3.30
2022-10-19T11:41:54.877Z,3.30
2022-10-19T11:44:37.183Z,3.80
2022-10-19T11:47:24.894Z,3.90
2022-10-19T11:50:10.962Z,4.90
2022-10-19T11:52:50.779Z,2.90
2022-10-19T11:55:36.584Z,4.80
2022-10-19T11:58:32.340Z,3.00
2022-10-19T12:01:17.887Z,4.30
2022-10-19T12:04:34.439Z,3.20
2022-10-19T12:07:22.193Z,5.70
2022-10-19T12:10:01.906Z,2.60
2022-10-19T12:15:35.303Z,4.10
2022-10-19T12:18:15.414Z,3.40
2022-10-19T12:20:50.836Z,2.30
2022-10-19T12:23:29.741Z,3.10
2022-10-19T12:26:04.676Z,5.70
2022-10-19T12:28:40.330Z,3.20
2022-10-19T12:31:14.025Z,3.80
2022-10-19T12:33:53.456Z,3.60
2022-10-19T12:36:38.783Z,2.20
2022-10-19T12:39:18.952Z,2.60
2022-10-19T12:41:59.847Z,2.40
2022-10-19T12:44:45.423Z,4.10
2022-10-19T12:47:22.404Z,4.80
2022-10-19T12:49:56.748Z,4.60
2022-10-19T12:52:53.171Z,4.50
2022-10-19T12:55:34.678Z,4.70
2022-10-19T12:58:20.972Z,5.00
2022-10-19T13:01:02.126Z,5.30
2022-10-19T13:03:36.923Z,5.20
2022-10-19T13:06:13.250Z,3.60
2022-10-19T13:08:48.700Z,4.40
2022-10-19T13:11:21.540Z,3.90
2022-10-19T13:14:02.426Z,2.50
2022-10-19T13:17:01.867Z,2.80
2022-10-19T13:19:33.444Z,4.60
2022-10-19T13:22:28.806Z,3.60
2022-10-19T13:25:24.170Z,4.80
2022-10-19T13:27:58.148Z,2.90
2022-10-19T13:31:06.020Z,3.30
2022-10-19T13:33:55.579Z,2.90
2022-10-19T13:36:28.878Z,2.30
2022-10-19T13:39:16.573Z,4.70
2022-10-19T13:41:53.717Z,4.60
2022-10-19T13:44:34.444Z,4.30
2022-10-19T13:47:39.059Z,5.30
2022-10-19T13:53:21.798Z,4.40
2022-10-19T14:00:06.291Z,4.80
2022-10-19T14:03:11.672Z,4.90
2022-10-19T14:06:00.776Z,4.20
2022-10-19T14:08:51.818Z,4.00
2022-10-19T14:11:28.194Z,5.70
2022-10-19T14:14:21.338Z,3.70
2022-10-19T14:16:59.638Z,6.20
2022-10-19T14:19:44.281Z,5.20
2022-10-19T14:22:26.986Z,3.50
2022-10-19T14:25:06.196Z,2.30
2022-10-19T14:27:39.586Z,2.20
2022-10-19T14:30:24.970Z,2.20
2022-10-19T14:33:00.986Z,1.90
2022-10-19T14:35:40.823Z,2.00
2022-10-19T14:38:23.181Z,1.40
2022-10-19T14:40:55.988Z,3.20
2022-10-19T14:43:30.477Z,2.10
2022-10-19T14:46:21.727Z,2.80
2022-10-19T14:48:59.837Z,3.00
2022-10-19T14:51:39.697Z,3.60
2022-10-19T14:54:17.662Z,3.30
2022-10-19T14:56:55.626Z,2.50
2022-10-19T14:59:31.051Z,3.90
2022-10-19T15:02:06.432Z,4.50
2022-10-19T15:04:40.987Z,6.10
2022-10-19T15:07:21.607Z,6.20
2022-10-19T15:09:57.239Z,4.10
2022-10-19T15:12:36.256Z,5.90
2022-10-19T15:15:17.502Z,4.50
2022-10-19T15:17:55.669Z,3.00
2022-10-19T15:20:34.094Z,3.70
2022-10-19T15:23:33.770Z,4.00
2022-10-19T15:26:17.276Z,4.50
2022-10-19T15:28:50.353Z,6.60
2022-10-19T15:31:25.410Z,7.00
2022-10-19T15:33:59.394Z,7.90
2022-10-19T15:36:33.494Z,4.40
2022-10-19T15:39:24.981Z,6.80
2022-10-19T15:41:57.932Z,6.70
2022-10-19T15:44:41.106Z,7.00
2022-10-19T15:47:24.950Z,5.60
2022-10-19T15:49:59.797Z,7.10
2022-10-19T15:52:33.506Z,8.90
2022-10-19T15:55:05.697Z,10.30
2022-10-19T15:57:39.842Z,12.60
2022-10-19T16:00:17.287Z,13.70
2022-10-19T16:02:48.973Z,12.30
2022-10-19T16:05:20.604Z,10.70
2022-10-19T16:07:52.747Z,12.00
2022-10-19T16:10:25.945Z,11.10
2022-10-19T16:12:57.420Z,9.60
2022-10-19T16:15:28.837Z,10.70
2022-10-19T16:18:01.714Z,13.10
2022-10-19T16:20:33.210Z,10.80
2022-10-19T16:23:04.655Z,10.20
2022-10-19T16:25:36.356Z,10.60
2022-10-19T16:28:07.847Z,10.50
2022-10-19T16:30:39.258Z,16.90
2022-10-19T16:33:10.738Z,17.30
2022-10-19T16:35:42.303Z,19.00
2022-10-19T16:38:13.941Z,17.50
2022-10-19T16:40:45.821Z,17.90
2022-10-19T16:43:17.268Z,13.30
2022-10-19T16:45:48.723Z,13.10
2022-10-19T16:48:23.857Z,10.90
2022-10-19T16:51:24.203Z,11.70
2022-10-19T16:53:58.976Z,13.40
2022-10-19T16:56:31.841Z,15.70
2022-10-19T16:59:06.831Z,11.90
2022-10-19T17:01:38.429Z,13.90
2022-10-19T17:04:10.041Z,13.80
2022-10-19T17:06:42.188Z,13.60
2022-10-19T17:09:37.016Z,13.70
2022-10-19T17:12:08.371Z,10.90
2022-10-19T17:14:41.522Z,9.80
2022-10-19T17:17:13.993Z,12.90
2022-10-19T17:19:45.442Z,18.60
2022-10-19T17:22:16.920Z,18.20
2022-10-19T17:24:48.604Z,17.50
2022-10-19T17:27:20.185Z,21.80
2022-10-19T17:29:51.643Z,19.00
2022-10-19T17:32:23.166Z,19.30
2022-10-19T17:34:56.945Z,16.50
2022-10-19T17:39:58.278Z,11.60
2022-10-19T17:42:31.060Z,8.30
2022-10-19T17:45:02.471Z,7.10
2022-10-19T17:47:34.301Z,9.20
2022-10-19T17:50:06.842Z,7.70
2022-10-19T17:52:38.293Z,8.30
2022-10-19T17:55:13.149Z,6.90
2022-10-19T17:57:45.074Z,10.80
2022-10-19T18:00:17.621Z,13.20
2022-10-19T18:02:49.750Z,11.50
2022-10-19T18:05:21.310Z,10.20
2022-10-19T18:07:53.927Z,9.90
2022-10-19T18:10:25.403Z,10.20
2022-10-19T18:12:56.932Z,9.30
2022-10-19T18:15:28.395Z,12.70
2022-10-19T18:18:01.148Z,10.30
2022-10-19T18:20:32.576Z,13.10
2022-10-19T18:23:04.380Z,10.60
2022-10-19T18:25:53.412Z,9.80
2022-10-19T18:28:25.622Z,9.80
2022-10-19T18:30:57.170Z,8.70
2022-10-19T18:33:32.450Z,9.40
2022-10-19T18:36:06.009Z,12.80
2022-10-19T18:38:38.499Z,8.40
2022-10-19T18:43:54.604Z,8.40
2022-10-19T18:46:27.812Z,7.60
2022-10-19T18:49:00.594Z,7.80
2022-10-19T18:51:32.887Z,9.00
2022-10-19T18:54:04.763Z,7.10
2022-10-19T18:56:37.355Z,5.90
2022-10-19T18:59:08.861Z,8.50
2022-10-19T19:01:41.583Z,6.80
2022-10-19T19:04:13.189Z,6.70
2022-10-19T19:06:44.606Z,10.90
2022-10-19T19:09:18.586Z,9.20
2022-10-19T19:11:51.461Z,7.30
2022-10-19T19:14:22.921Z,6.70
2022-10-19T19:16:54.838Z,7.60
2022-10-19T19:19:27.539Z,6.70
2022-10-19T19:22:05.103Z,6.40
2022-10-19T19:24:39.559Z,7.60
2022-10-19T19:27:11.722Z,6.30
2022-10-19T19:29:43.106Z,5.40
2022-10-19T19:32:14.546Z,5.90
2022-10-19T19:34:46.160Z,8.20
2022-10-19T19:37:17.858Z,6.30
2022-10-19T19:39:49.274Z,6.60
2022-10-19T19:42:23.275Z,6.10
2022-10-19T19:44:57.244Z,9.10
2022-10-19T19:47:28.784Z,9.30
2022-10-19T19:50:00.331Z,9.40
2022-10-19T19:52:31.882Z,12.40
2022-10-19T19:55:03.642Z,7.60
2022-10-19T19:57:35.504Z,6.30
2022-10-19T20:00:09.841Z,8.60
2022-10-19T20:02:41.378Z,7.70
2022-10-19T20:05:12.941Z,12.40
2022-10-19T20:07:44.338Z,8.20
2022-10-19T20:10:16.467Z,7.10
2022-10-19T20:12:48.875Z,8.50
2022-10-19T20:15:21.119Z,7.00
2022-10-19T20:17:52.495Z,7.50
2022-10-19T20:20:23.887Z,7.60
2022-10-19T20:22:55.290Z,8.00
2022-10-19T20:25:26.882Z,10.60
2022-10-19T20:27:58.301Z,8.30
2022-10-19T20:30:29.700Z,9.40
2022-10-19T20:33:01.129Z,9.20
2022-10-19T20:35:32.694Z,8.80
2022-10-19T20:38:04.309Z,13.10
2022-10-19T20:40:36.266Z,13.70
2022-10-19T20:43:07.751Z,18.10
2022-10-19T20:45:39.837Z,21.10
2022-10-19T20:48:11.299Z,17.20
2022-10-19T20:50:42.752Z,16.50
2022-10-19T20:53:14.122Z,14.20
2022-10-19T20:55:45.501Z,16.20
2022-10-19T20:58:17.111Z,14.70
2022-10-19T21:00:48.556Z,13.30
2022-10-19T21:03:21.831Z,17.10
2022-10-19T21:05:53.240Z,16.80
2022-10-19T21:08:24.723Z,16.40
2022-10-19T21:10:56.315Z,16.00
2022-10-19T21:13:27.857Z,14.80
2022-10-19T21:15:59.237Z,12.90
2022-10-19T21:18:30.657Z,8.60
2022-10-19T21:21:02.040Z,8.30
2022-10-19T21:23:33.470Z,8.80
2022-10-19T21:26:05.123Z,10.70
2022-10-19T21:28:36.617Z,10.30
2022-10-19T21:31:10.513Z,12.70
2022-10-19T21:33:41.967Z,12.90
2022-10-19T21:36:15.371Z,14.50
2022-10-19T21:38:46.792Z,14.90
2022-10-19T21:41:23.733Z,12.80
2022-10-19T21:43:57.891Z,11.80
2022-10-19T21:46:30.190Z,9.30
2022-10-19T21:49:01.732Z,10.30
2022-10-19T21:51:37.598Z,9.90
2022-10-19T21:56:50.064Z,11.20
2022-10-19T21:59:21.484Z,11.60
2022-10-19T22:01:54.720Z,9.20
2022-10-19T22:04:27.169Z,12.40
2022-10-19T22:06:59.697Z,13.00
2022-10-19T22:09:31.300Z,14.90
2022-10-19T22:12:02.765Z,13.60
2022-10-19T22:14:34.179Z,12.60
2022-10-19T22:17:05.880Z,15.30
2022-10-19T22:19:37.761Z,14.60
2022-10-19T22:22:09.250Z,13.80
2022-10-19T22:24:41.032Z,9.70
2022-10-19T22:27:12.540Z,12.40
2022-10-19T22:29:44.354Z,13.10
2022-10-19T22:32:15.762Z,11.50
2022-10-19T22:34:47.259Z,11.70
2022-10-19T22:37:18.675Z,13.00
2022-10-19T22:39:50.202Z,12.70
2022-10-19T22:42:21.657Z,13.00
2022-10-19T22:44:53.075Z,14.70
2022-10-19T22:47:24.576Z,11.10
2022-10-19T22:49:56.019Z,14.60
2022-10-19T22:52:27.407Z,10.80
2022-10-19T22:54:58.877Z,16.90
2022-10-19T22:57:30.308Z,11.00
2022-10-19T23:00:01.704Z,13.60
2022-10-19T23:02:33.193Z,9.60
2022-10-19T23:05:04.908Z,10.70
2022-10-19T23:07:38.179Z,11.20
2022-10-19T23:10:11.099Z,13.90
2022-10-19T23:12:42.519Z,13.60
2022-10-19T23:15:14.640Z,12.60
2022-10-19T23:17:46.079Z,15.10
2022-10-19T23:20:18.034Z,13.20
2022-10-19T23:22:50.812Z,12.10
2022-10-19T23:25:22.354Z,13.00
2022-10-19T23:27:53.798Z,12.60
2022-10-19T23:30:25.320Z,11.40
2022-10-19T23:32:56.827Z,12.20
2022-10-19T23:35:28.311Z,12.40
2022-10-19T23:37:59.676Z,15.40
2022-10-19T23:40:31.147Z,10.50
2022-10-19T23:43:02.531Z,9.60
2022-10-19T23:45:34.179Z,10.00
2022-10-19T23:48:06.377Z,10.10
2022-10-19T23:50:37.914Z,10.70
2022-10-19T23:53:09.418Z,9.60
2022-10-19T23:55:40.848Z,12.50
2022-10-19T23:58:12.433Z,18.40
